KTLH

Tallahassee International Airport

Tallahassee, Florida, USA
METAR KTLH 100553Z AUTO 31008KT 10SM BKN015 OVC021 08/07 A3002 RMK AO2 SLP166 60000 T00830067 10111 20083 50005
Observed Flight Rules
Dec-10 @ 05:53 UTC (41 minutes ago) Marginal Visual Flight Rules
Wind Visibility Clouds
310° at 8 knots 10 miles
  • Broken at 1,500' AGL
  • Overcast at 2,100' AGL
Temperatures Readings
Current 8°C / 46°F
Dewpoint 7°C / 45°F
Humidity 93%
Altimeter 30.02" Hg
Pressure 1016.6 hPa
Elevation 19
METAR KTLH 100553Z AUTO 31008KT 10SM BKN015 OVC021 08/07 A3002 RMK AO2 SLP166 60000 T00830067 10111 20083 50005
Observed Flight Rules
Dec-10 @ 05:53 UTC
(41 minutes ago)
MVFR
Wind Visibility
310° at 8 knots 10 miles
Clouds
  • Broken at 1,500' AGL
  • Overcast at 2,100' AGL
Temperature Dewpoint
8°C / 46°F 7°C / 45°F
Humidity Altimeter Pressure
93% 30.02" Hg 1016.6 hPa